sensor_id;sensor_type;location;lat;lon;timestamp;P1;durP1;ratioP1;P2;durP2;ratioP2
44098;SDS011;29762;50.086;14.364;2024-03-29T00:04:53;3.17;;;1.08;;
44098;SDS011;29762;50.086;14.364;2024-03-29T00:15:13;1.55;;;0.88;;
44098;SDS011;29762;50.086;14.364;2024-03-29T00:25:33;2.58;;;1.00;;
44098;SDS011;29762;50.086;14.364;2024-03-29T00:35:52;2.95;;;0.90;;
44098;SDS011;29762;50.086;14.364;2024-03-29T00:46:11;1.13;;;0.80;;
44098;SDS011;29762;50.086;14.364;2024-03-29T00:56:30;1.63;;;0.80;;
44098;SDS011;29762;50.086;14.364;2024-03-29T01:06:50;1.15;;;0.88;;
44098;SDS011;29762;50.086;14.364;2024-03-29T01:17:09;1.92;;;0.90;;
44098;SDS011;29762;50.086;14.364;2024-03-29T01:27:28;1.27;;;0.90;;
44098;SDS011;29762;50.086;14.364;2024-03-29T01:37:48;0.70;;;0.70;;
44098;SDS011;29762;50.086;14.364;2024-03-29T01:48:08;0.93;;;0.75;;
44098;SDS011;29762;50.086;14.364;2024-03-29T01:58:28;1.33;;;0.80;;
44098;SDS011;29762;50.086;14.364;2024-03-29T02:08:49;1.50;;;0.80;;
44098;SDS011;29762;50.086;14.364;2024-03-29T02:19:09;0.85;;;0.70;;
44098;SDS011;29762;50.086;14.364;2024-03-29T02:29:29;1.00;;;0.80;;
44098;SDS011;29762;50.086;14.364;2024-03-29T02:39:49;1.83;;;0.80;;
44098;SDS011;29762;50.086;14.364;2024-03-29T02:50:09;0.80;;;0.60;;
44098;SDS011;29762;50.086;14.364;2024-03-29T03:00:29;0.90;;;0.70;;
44098;SDS011;29762;50.086;14.364;2024-03-29T03:10:49;0.98;;;0.70;;
44098;SDS011;29762;50.086;14.364;2024-03-29T03:21:20;1.15;;;0.70;;
44098;SDS011;29762;50.086;14.364;2024-03-29T03:31:40;0.77;;;0.60;;
44098;SDS011;29762;50.086;14.364;2024-03-29T03:41:59;1.08;;;0.65;;
44098;SDS011;29762;50.086;14.364;2024-03-29T03:52:18;1.02;;;0.63;;
44098;SDS011;29762;50.086;14.364;2024-03-29T04:02:38;0.90;;;0.55;;
44098;SDS011;29762;50.086;14.364;2024-03-29T04:12:57;1.27;;;0.50;;
44098;SDS011;29762;50.086;14.364;2024-03-29T04:23:16;1.65;;;0.60;;
44098;SDS011;29762;50.086;14.364;2024-03-29T04:33:35;0.52;;;0.50;;
44098;SDS011;29762;50.086;14.364;2024-03-29T04:43:55;0.82;;;0.47;;
44098;SDS011;29762;50.086;14.364;2024-03-29T04:54:14;0.52;;;0.40;;
44098;SDS011;29762;50.086;14.364;2024-03-29T05:04:35;0.85;;;0.63;;
44098;SDS011;29762;50.086;14.364;2024-03-29T05:14:54;0.57;;;0.50;;
44098;SDS011;29762;50.086;14.364;2024-03-29T05:25:14;0.90;;;0.60;;
44098;SDS011;29762;50.086;14.364;2024-03-29T05:35:34;0.47;;;0.47;;
44098;SDS011;29762;50.086;14.364;2024-03-29T05:45:54;1.10;;;0.55;;
44098;SDS011;29762;50.086;14.364;2024-03-29T05:56:13;0.55;;;0.50;;
44098;SDS011;29762;50.086;14.364;2024-03-29T06:06:33;0.50;;;0.50;;
44098;SDS011;29762;50.086;14.364;2024-03-29T06:16:52;0.85;;;0.70;;
44098;SDS011;29762;50.086;14.364;2024-03-29T06:27:31;0.75;;;0.60;;
44098;SDS011;29762;50.086;14.364;2024-03-29T06:37:51;0.88;;;0.60;;
44098;SDS011;29762;50.086;14.364;2024-03-29T06:48:10;0.40;;;0.40;;
44098;SDS011;29762;50.086;14.364;2024-03-29T06:58:30;0.70;;;0.52;;
44098;SDS011;29762;50.086;14.364;2024-03-29T07:08:50;1.60;;;0.40;;
44098;SDS011;29762;50.086;14.364;2024-03-29T07:19:09;1.92;;;0.60;;
44098;SDS011;29762;50.086;14.364;2024-03-29T07:29:35;4.18;;;0.82;;
44098;SDS011;29762;50.086;14.364;2024-03-29T07:39:56;1.10;;;0.60;;
44098;SDS011;29762;50.086;14.364;2024-03-29T07:50:15;2.22;;;0.45;;
44098;SDS011;29762;50.086;14.364;2024-03-29T08:00:35;5.18;;;0.60;;
44098;SDS011;29762;50.086;14.364;2024-03-29T08:10:59;3.30;;;0.70;;
44098;SDS011;29762;50.086;14.364;2024-03-29T08:21:19;3.05;;;0.68;;
44098;SDS011;29762;50.086;14.364;2024-03-29T08:31:38;3.90;;;0.85;;
44098;SDS011;29762;50.086;14.364;2024-03-29T08:41:58;2.42;;;0.70;;
44098;SDS011;29762;50.086;14.364;2024-03-29T08:52:18;5.40;;;0.90;;
44098;SDS011;29762;50.086;14.364;2024-03-29T09:02:38;4.80;;;0.90;;
44098;SDS011;29762;50.086;14.364;2024-03-29T09:12:58;8.80;;;2.20;;
44098;SDS011;29762;50.086;14.364;2024-03-29T09:23:17;18.20;;;3.42;;
44098;SDS011;29762;50.086;14.364;2024-03-29T09:33:40;11.43;;;2.83;;
44098;SDS011;29762;50.086;14.364;2024-03-29T09:44:00;12.73;;;2.83;;
44098;SDS011;29762;50.086;14.364;2024-03-29T09:54:22;12.32;;;2.55;;
44098;SDS011;29762;50.086;14.364;2024-03-29T10:04:41;9.35;;;2.90;;
44098;SDS011;29762;50.086;14.364;2024-03-29T10:15:02;13.20;;;4.00;;
44098;SDS011;29762;50.086;14.364;2024-03-29T10:25:33;8.90;;;2.63;;
44098;SDS011;29762;50.086;14.364;2024-03-29T10:35:53;9.43;;;2.75;;
44098;SDS011;29762;50.086;14.364;2024-03-29T10:46:15;8.02;;;2.67;;
44098;SDS011;29762;50.086;14.364;2024-03-29T10:56:36;7.00;;;2.22;;
44098;SDS011;29762;50.086;14.364;2024-03-29T11:06:57;9.25;;;2.90;;
44098;SDS011;29762;50.086;14.364;2024-03-29T11:17:18;6.20;;;2.00;;
44098;SDS011;29762;50.086;14.364;2024-03-29T11:27:37;4.07;;;1.73;;
44098;SDS011;29762;50.086;14.364;2024-03-29T11:37:58;3.78;;;1.83;;
44098;SDS011;29762;50.086;14.364;2024-03-29T11:48:19;6.10;;;2.13;;
44098;SDS011;29762;50.086;14.364;2024-03-29T11:58:44;4.20;;;1.80;;
44098;SDS011;29762;50.086;14.364;2024-03-29T12:09:05;4.60;;;2.05;;
44098;SDS011;29762;50.086;14.364;2024-03-29T12:19:25;4.75;;;1.50;;
44098;SDS011;29762;50.086;14.364;2024-03-29T12:29:47;4.78;;;1.60;;
44098;SDS011;29762;50.086;14.364;2024-03-29T12:40:07;4.63;;;1.70;;
44098;SDS011;29762;50.086;14.364;2024-03-29T12:50:39;4.22;;;1.50;;
44098;SDS011;29762;50.086;14.364;2024-03-29T13:00:59;2.80;;;1.40;;
44098;SDS011;29762;50.086;14.364;2024-03-29T13:11:19;4.32;;;1.73;;
44098;SDS011;29762;50.086;14.364;2024-03-29T13:21:38;2.47;;;1.15;;
44098;SDS011;29762;50.086;14.364;2024-03-29T13:31:58;4.28;;;1.52;;
44098;SDS011;29762;50.086;14.364;2024-03-29T13:42:17;2.38;;;1.30;;
44098;SDS011;29762;50.086;14.364;2024-03-29T13:52:37;2.88;;;1.20;;
44098;SDS011;29762;50.086;14.364;2024-03-29T14:02:57;2.05;;;1.10;;
44098;SDS011;29762;50.086;14.364;2024-03-29T14:13:16;2.05;;;1.20;;
44098;SDS011;29762;50.086;14.364;2024-03-29T14:23:36;3.10;;;1.25;;
44098;SDS011;29762;50.086;14.364;2024-03-29T14:33:55;2.42;;;1.17;;
44098;SDS011;29762;50.086;14.364;2024-03-29T14:44:14;2.45;;;1.20;;
44098;SDS011;29762;50.086;14.364;2024-03-29T14:54:34;1.88;;;1.00;;
44098;SDS011;29762;50.086;14.364;2024-03-29T15:04:53;3.20;;;1.20;;
44098;SDS011;29762;50.086;14.364;2024-03-29T15:15:13;2.88;;;1.10;;
44098;SDS011;29762;50.086;14.364;2024-03-29T15:25:33;1.73;;;1.08;;
44098;SDS011;29762;50.086;14.364;2024-03-29T15:35:54;1.70;;;0.93;;
44098;SDS011;29762;50.086;14.364;2024-03-29T15:46:13;2.10;;;1.00;;
44098;SDS011;29762;50.086;14.364;2024-03-29T15:56:33;2.17;;;1.00;;
44098;SDS011;29762;50.086;14.364;2024-03-29T16:06:55;2.75;;;1.02;;
44098;SDS011;29762;50.086;14.364;2024-03-29T16:17:14;1.90;;;0.90;;
44098;SDS011;29762;50.086;14.364;2024-03-29T16:27:33;1.80;;;1.10;;
44098;SDS011;29762;50.086;14.364;2024-03-29T16:37:53;2.00;;;0.82;;
44098;SDS011;29762;50.086;14.364;2024-03-29T16:48:12;1.95;;;0.98;;
44098;SDS011;29762;50.086;14.364;2024-03-29T16:58:32;1.35;;;0.88;;
44098;SDS011;29762;50.086;14.364;2024-03-29T17:08:51;1.10;;;0.80;;
44098;SDS011;29762;50.086;14.364;2024-03-29T17:19:11;1.02;;;0.68;;
44098;SDS011;29762;50.086;14.364;2024-03-29T17:29:31;0.90;;;0.70;;
44098;SDS011;29762;50.086;14.364;2024-03-29T17:39:51;1.00;;;0.70;;
44098;SDS011;29762;50.086;14.364;2024-03-29T17:50:11;1.67;;;0.90;;
44098;SDS011;29762;50.086;14.364;2024-03-29T18:00:32;1.00;;;0.70;;
44098;SDS011;29762;50.086;14.364;2024-03-29T18:10:51;1.77;;;0.80;;
44098;SDS011;29762;50.086;14.364;2024-03-29T18:21:10;1.00;;;0.68;;
44098;SDS011;29762;50.086;14.364;2024-03-29T18:31:30;1.15;;;0.80;;
44098;SDS011;29762;50.086;14.364;2024-03-29T18:41:49;0.73;;;0.60;;
44098;SDS011;29762;50.086;14.364;2024-03-29T18:52:09;0.65;;;0.60;;
44098;SDS011;29762;50.086;14.364;2024-03-29T19:02:28;1.13;;;0.60;;
44098;SDS011;29762;50.086;14.364;2024-03-29T19:12:48;1.10;;;0.70;;
44098;SDS011;29762;50.086;14.364;2024-03-29T19:23:07;0.75;;;0.60;;
44098;SDS011;29762;50.086;14.364;2024-03-29T19:33:26;0.85;;;0.65;;
44098;SDS011;29762;50.086;14.364;2024-03-29T19:43:45;0.70;;;0.60;;
44098;SDS011;29762;50.086;14.364;2024-03-29T19:54:05;1.20;;;0.70;;
44098;SDS011;29762;50.086;14.364;2024-03-29T20:04:25;1.08;;;0.73;;
44098;SDS011;29762;50.086;14.364;2024-03-29T20:14:44;1.10;;;0.80;;
44098;SDS011;29762;50.086;14.364;2024-03-29T20:25:03;0.70;;;0.68;;
44098;SDS011;29762;50.086;14.364;2024-03-29T20:35:23;1.50;;;0.73;;
44098;SDS011;29762;50.086;14.364;2024-03-29T20:45:43;0.93;;;0.70;;
44098;SDS011;29762;50.086;14.364;2024-03-29T20:56:03;0.65;;;0.60;;
44098;SDS011;29762;50.086;14.364;2024-03-29T21:06:24;0.50;;;0.50;;
44098;SDS011;29762;50.086;14.364;2024-03-29T21:16:43;1.08;;;0.80;;
44098;SDS011;29762;50.086;14.364;2024-03-29T21:27:03;0.63;;;0.60;;
44098;SDS011;29762;50.086;14.364;2024-03-29T21:37:23;0.70;;;0.70;;
44098;SDS011;29762;50.086;14.364;2024-03-29T21:47:42;1.05;;;0.60;;
44098;SDS011;29762;50.086;14.364;2024-03-29T21:58:01;0.80;;;0.70;;
44098;SDS011;29762;50.086;14.364;2024-03-29T22:08:22;0.45;;;0.40;;
44098;SDS011;29762;50.086;14.364;2024-03-29T22:18:41;0.60;;;0.50;;
44098;SDS011;29762;50.086;14.364;2024-03-29T22:29:01;0.68;;;0.60;;
44098;SDS011;29762;50.086;14.364;2024-03-29T22:39:20;0.63;;;0.60;;
44098;SDS011;29762;50.086;14.364;2024-03-29T22:49:40;0.50;;;0.50;;
44098;SDS011;29762;50.086;14.364;2024-03-29T22:59:59;0.60;;;0.50;;
44098;SDS011;29762;50.086;14.364;2024-03-29T23:10:19;0.57;;;0.50;;
44098;SDS011;29762;50.086;14.364;2024-03-29T23:20:39;0.90;;;0.70;;
44098;SDS011;29762;50.086;14.364;2024-03-29T23:30:58;0.80;;;0.70;;
44098;SDS011;29762;50.086;14.364;2024-03-29T23:41:22;1.00;;;0.60;;
44098;SDS011;29762;50.086;14.364;2024-03-29T23:51:43;0.77;;;0.65;;
